createdAt,value
2022-08-02T00:01:23.824Z,98524.22
2022-08-02T00:04:10.823Z,98522.44
2022-08-02T00:06:50.843Z,98531.91
2022-08-02T00:09:37.797Z,98524.44
2022-08-02T00:12:24.787Z,98519.91
2022-08-02T00:15:16.176Z,98515.72
2022-08-02T00:18:02.797Z,98511.88
2022-08-02T00:20:49.776Z,98516.69
2022-08-02T00:24:05.004Z,98514.50
2022-08-02T00:26:43.826Z,98512.88
2022-08-02T00:29:30.794Z,98511.22
2022-08-02T00:32:17.816Z,98505.59
2022-08-02T00:34:57.886Z,98496.19
2022-08-02T00:37:45.820Z,98499.69
2022-08-02T00:40:35.812Z,98496.19
2022-08-02T00:43:22.809Z,98495.34
2022-08-02T00:46:09.813Z,98500.56
2022-08-02T00:48:50.331Z,98495.19
2022-08-02T00:51:36.805Z,98497.59
2022-08-02T00:54:17.140Z,98499.47
2022-08-02T00:57:03.821Z,98502.69
2022-08-02T00:59:50.800Z,98511.59
2022-08-02T01:02:37.815Z,98508.69
2022-08-02T01:05:18.243Z,98512.97
2022-08-02T01:08:04.822Z,98513.19
2022-08-02T01:10:45.213Z,98514.50
2022-08-02T01:13:31.804Z,98521.50
2022-08-02T01:16:19.556Z,98518.25
2022-08-02T01:19:14.287Z,98518.25
2022-08-02T01:22:58.405Z,98511.06
2022-08-02T01:26:03.840Z,98516.19
2022-08-02T01:29:13.832Z,98517.00
2022-08-02T01:32:10.923Z,98518.59
2022-08-02T01:35:23.820Z,98525.06
2022-08-02T01:38:23.834Z,98523.47
2022-08-02T01:41:14.840Z,98529.69
2022-08-02T01:44:04.924Z,98530.50
2022-08-02T01:46:47.954Z,98536.13
2022-08-02T01:49:37.922Z,98533.13
2022-08-02T01:52:32.929Z,98532.56
2022-08-02T01:55:19.384Z,98534.13
2022-08-02T01:58:11.867Z,98526.84
2022-08-02T02:00:59.987Z,98530.88
2022-08-02T02:03:43.140Z,98531.91
2022-08-02T02:06:30.852Z,98526.78
2022-08-02T02:09:13.680Z,98524.31
2022-08-02T02:12:12.805Z,98538.28
2022-08-02T02:15:02.848Z,98533.56
2022-08-02T02:18:11.402Z,98539.31
2022-08-02T02:20:52.863Z,98546.94
2022-08-02T02:23:39.868Z,98549.44
2022-08-02T02:26:31.311Z,98552.63
2022-08-02T02:29:16.918Z,98560.09
2022-08-02T02:32:06.846Z,98572.75
2022-08-02T02:34:50.924Z,98584.41
2022-08-02T02:37:40.881Z,98574.09
2022-08-02T02:40:22.971Z,98579.59
2022-08-02T02:43:11.928Z,98569.38
2022-08-02T02:45:52.919Z,98568.19
2022-08-02T02:48:41.886Z,98562.94
2022-08-02T02:51:22.359Z,98564.91
2022-08-02T02:54:30.547Z,98553.19
2022-08-02T02:57:10.910Z,98544.91
2022-08-02T02:59:57.885Z,98540.59
2022-08-02T03:02:38.006Z,98542.69
2022-08-02T03:05:24.887Z,98544.34
2022-08-02T03:08:11.870Z,98546.47
2022-08-02T03:10:59.866Z,98557.78
2022-08-02T03:13:39.961Z,98557.06
2022-08-02T03:16:26.868Z,98567.81
2022-08-02T03:19:16.893Z,98570.50
2022-08-02T03:22:03.876Z,98573.97
2022-08-02T03:24:43.996Z,98582.00
2022-08-02T03:27:30.917Z,98577.47
2022-08-02T03:30:13.032Z,98574.78
2022-08-02T03:32:59.922Z,98572.63
2022-08-02T03:35:40.942Z,98567.25
2022-08-02T03:38:30.899Z,98572.38
2022-08-02T03:41:18.893Z,98582.06
2022-08-02T03:44:00.695Z,98580.50
2022-08-02T03:46:47.923Z,98582.66
2022-08-02T03:49:29.213Z,98584.56
2022-08-02T03:52:16.912Z,98594.56
2022-08-02T03:54:58.146Z,98593.72
2022-08-02T03:57:44.910Z,98596.13
2022-08-02T04:00:31.968Z,98595.56
2022-08-02T04:03:19.767Z,98592.38
2022-08-02T04:06:06.907Z,98602.59
2022-08-02T04:08:53.903Z,98603.97
2022-08-02T04:11:34.440Z,98604.75
2022-08-02T04:14:22.954Z,98608.50
2022-08-02T04:17:14.928Z,98616.81
2022-08-02T04:20:00.011Z,98607.41
2022-08-02T04:22:53.894Z,98610.38
2022-08-02T04:25:40.922Z,98616.53
2022-08-02T04:28:27.625Z,98620.25
2022-08-02T04:31:09.926Z,98626.19
2022-08-02T04:33:56.948Z,98631.56
2022-08-02T04:36:44.923Z,98621.91
2022-08-02T04:39:25.999Z,98630.75
2022-08-02T04:42:13.145Z,98632.13
2022-08-02T04:44:59.940Z,98629.97
2022-08-02T04:48:03.656Z,98639.38
2022-08-02T04:50:50.932Z,98642.88
2022-08-02T04:53:31.248Z,98645.56
2022-08-02T04:56:17.958Z,98643.94
2022-08-02T04:59:04.931Z,98649.03
2022-08-02T05:01:44.975Z,98642.81
2022-08-02T05:04:31.946Z,98647.13
2022-08-02T05:07:11.998Z,98653.06
2022-08-02T05:09:58.940Z,98656.78
2022-08-02T05:12:39.096Z,98662.94
2022-08-02T05:15:27.506Z,98665.38
2022-08-02T05:18:10.047Z,98669.94
2022-08-02T05:20:58.356Z,98661.31
2022-08-02T05:23:44.981Z,98662.16
2022-08-02T05:26:31.938Z,98673.44
2022-08-02T05:29:18.946Z,98679.59
2022-08-02T05:32:05.931Z,98678.78
2022-08-02T05:34:45.954Z,98684.13
2022-08-02T05:37:39.923Z,98690.03
2022-08-02T05:40:29.939Z,98687.91
2022-08-02T05:43:24.959Z,98689.50
2022-08-02T05:46:11.941Z,98692.72
2022-08-02T05:48:59.026Z,98686.78
2022-08-02T05:51:45.724Z,98697.50
2022-08-02T05:54:40.971Z,98696.94
2022-08-02T05:57:43.555Z,98692.91
2022-08-02T06:00:30.956Z,98695.56
2022-08-02T06:03:16.654Z,98693.69
2022-08-02T06:06:18.956Z,98707.66
2022-08-02T06:09:10.956Z,98698.50
2022-08-02T06:12:02.816Z,98701.16
2022-08-02T06:14:54.040Z,98705.97
2022-08-02T06:17:35.020Z,98707.09
2022-08-02T06:20:30.970Z,98706.00
2022-08-02T06:23:13.927Z,98712.47
2022-08-02T06:26:02.991Z,98719.44
2022-08-02T06:28:50.986Z,98725.88
2022-08-02T06:31:31.391Z,98721.84
2022-08-02T06:34:18.002Z,98718.66
2022-08-02T06:37:13.974Z,98716.25
2022-08-02T06:40:06.000Z,98714.06
2022-08-02T06:42:58.421Z,98718.84
2022-08-02T06:45:46.981Z,98719.88
2022-08-02T06:48:27.337Z,98717.41
2022-08-02T06:51:13.981Z,98718.47
2022-08-02T06:53:54.709Z,98710.38
2022-08-02T06:56:41.033Z,98710.00
2022-08-02T06:59:28.009Z,98699.81
2022-08-02T07:02:08.234Z,98708.22
2022-08-02T07:04:55.003Z,98712.75
2022-08-02T07:07:35.147Z,98704.56
2022-08-02T07:10:21.998Z,98702.63
2022-08-02T07:13:02.531Z,98700.56
2022-08-02T07:15:49.297Z,98693.56
2022-08-02T07:18:31.047Z,98693.25
2022-08-02T07:21:18.012Z,98701.88
2022-08-02T07:24:25.016Z,98692.38
2022-08-02T07:27:12.881Z,98692.59
2022-08-02T07:29:53.112Z,98691.78
2022-08-02T07:32:40.012Z,98690.53
2022-08-02T07:35:21.781Z,98691.84
2022-08-02T07:38:08.001Z,98695.06
2022-08-02T07:40:54.998Z,98688.78
2022-08-02T07:43:42.000Z,98686.94
2022-08-02T07:46:22.223Z,98677.16
2022-08-02T07:49:09.022Z,98678.47
2022-08-02T07:51:49.091Z,98689.81
2022-08-02T07:54:36.046Z,98689.25
2022-08-02T07:57:16.078Z,98681.44
2022-08-02T08:00:03.026Z,98682.25
2022-08-02T08:02:43.206Z,98687.88
2022-08-02T08:05:33.035Z,98691.72
2022-08-02T08:08:17.378Z,98690.75
2022-08-02T08:11:04.027Z,98691.75
2022-08-02T08:13:54.029Z,98686.56
2022-08-02T08:16:34.376Z,98681.97
2022-08-02T08:19:21.038Z,98684.84
2022-08-02T08:22:21.525Z,98691.59
2022-08-02T08:25:08.043Z,98692.63
2022-08-02T08:27:49.844Z,98694.59
2022-08-02T08:30:37.121Z,98695.72
2022-08-02T08:33:17.474Z,98703.09
2022-08-02T08:36:04.027Z,98697.97
2022-08-02T08:38:51.048Z,98700.97
2022-08-02T08:41:31.095Z,98694.53
2022-08-02T08:44:18.043Z,98698.47
2022-08-02T08:47:05.070Z,98699.41
2022-08-02T08:50:01.052Z,98699.13
2022-08-02T08:53:03.043Z,98701.03
2022-08-02T08:55:44.770Z,98691.44
2022-08-02T08:58:32.053Z,98699.16
2022-08-02T09:01:21.084Z,98695.78
2022-08-02T09:04:01.147Z,98700.19
2022-08-02T09:06:48.047Z,98704.09
2022-08-02T09:09:35.070Z,98706.03
2022-08-02T09:12:23.089Z,98702.00
2022-08-02T09:15:14.273Z,98697.50
2022-08-02T09:17:56.446Z,98703.59
2022-08-02T09:20:43.058Z,98711.81
2022-08-02T09:23:24.359Z,98705.03
2022-08-02T09:26:13.080Z,98704.94
2022-08-02T09:29:08.071Z,98700.25
2022-08-02T09:31:56.073Z,98701.84
2022-08-02T09:34:44.275Z,98710.16
2022-08-02T09:37:42.068Z,98717.25
2022-08-02T09:40:35.642Z,98711.03
2022-08-02T09:43:23.088Z,98713.38
2022-08-02T09:46:24.625Z,98710.44
2022-08-02T09:49:08.141Z,98715.25
2022-08-02T09:51:57.091Z,98716.56
2022-08-02T09:54:37.137Z,98712.03
2022-08-02T09:57:34.074Z,98709.13
2022-08-02T10:00:37.162Z,98709.03
2022-08-02T10:03:35.165Z,98704.97
2022-08-02T10:06:17.159Z,98707.25
2022-08-02T10:09:04.089Z,98705.25
2022-08-02T10:11:44.221Z,98700.16
2022-08-02T10:14:32.083Z,98703.66
2022-08-02T10:17:13.170Z,98692.03
2022-08-02T10:20:04.271Z,98696.25
2022-08-02T10:22:46.190Z,98699.53
2022-08-02T10:25:34.094Z,98693.41
2022-08-02T10:28:16.659Z,98693.53
2022-08-02T10:31:05.098Z,98685.09
2022-08-02T10:33:50.101Z,98689.19
2022-08-02T10:36:40.113Z,98685.59
2022-08-02T10:39:27.108Z,98686.72
2022-08-02T10:42:08.431Z,98682.31
2022-08-02T10:44:59.099Z,98677.31
2022-08-02T10:47:46.127Z,98671.22
2022-08-02T10:51:06.095Z,98667.91
2022-08-02T10:54:09.693Z,98661.63
2022-08-02T10:57:01.296Z,98662.69
2022-08-02T10:59:41.561Z,98653.59
2022-08-02T11:02:47.133Z,98657.13
2022-08-02T11:05:43.087Z,98651.66
2022-08-02T11:08:35.131Z,98652.34
2022-08-02T11:11:18.600Z,98648.53
2022-08-02T11:14:21.122Z,98646.94
2022-08-02T11:17:21.127Z,98651.03
2022-08-02T11:20:17.769Z,98647.25
2022-08-02T11:23:44.437Z,98643.00
2022-08-02T11:26:41.200Z,98646.06
2022-08-02T11:29:28.143Z,98644.88
2022-08-02T11:32:08.201Z,98640.50
2022-08-02T11:34:58.147Z,98641.56
2022-08-02T11:37:56.152Z,98642.44
2022-08-02T11:40:45.153Z,98629.56
2022-08-02T11:43:27.451Z,98636.63
2022-08-02T11:46:20.173Z,98631.22
2022-08-02T11:49:08.538Z,98627.25
2022-08-02T11:51:54.264Z,98627.53
2022-08-02T11:54:47.147Z,98627.03
2022-08-02T11:58:02.836Z,98618.28
2022-08-02T12:00:41.175Z,98622.41
2022-08-02T12:03:28.180Z,98617.97
2022-08-02T12:06:19.172Z,98617.84
2022-08-02T12:09:18.887Z,98619.53
2022-08-02T12:11:59.267Z,98620.34
2022-08-02T12:14:50.152Z,98622.13
2022-08-02T12:17:55.145Z,98620.75
2022-08-02T12:20:37.181Z,98619.94
2022-08-02T12:23:24.195Z,98620.91
2022-08-02T12:26:09.387Z,98614.69
2022-08-02T12:29:09.154Z,98614.09
2022-08-02T12:31:57.241Z,98609.94
2022-08-02T12:34:47.161Z,98611.06
2022-08-02T12:37:41.136Z,98613.31
2022-08-02T12:40:30.168Z,98614.59
2022-08-02T12:43:19.162Z,98600.84
2022-08-02T12:45:59.531Z,98604.19
2022-08-02T12:49:15.991Z,98591.72
2022-08-02T12:51:51.284Z,98585.53
2022-08-02T12:54:52.166Z,98584.50
2022-08-02T12:57:32.509Z,98588.16
2022-08-02T13:00:19.218Z,98587.50
2022-08-02T13:03:00.851Z,98585.53
2022-08-02T13:05:56.591Z,98581.25
2022-08-02T13:08:38.761Z,98582.22
2022-08-02T13:11:25.337Z,98568.22
2022-08-02T13:14:12.198Z,98570.75
2022-08-02T13:17:14.178Z,98565.66
2022-08-02T13:20:01.206Z,98557.22
2022-08-02T13:22:52.780Z,98562.50
2022-08-02T13:25:40.195Z,98558.59
2022-08-02T13:28:27.484Z,98564.44
2022-08-02T13:31:34.242Z,98556.31
2022-08-02T13:34:14.200Z,98550.88
2022-08-02T13:37:01.209Z,98554.97
2022-08-02T13:40:11.741Z,98547.19
2022-08-02T13:42:48.493Z,98542.16
2022-08-02T13:45:35.225Z,98536.53
2022-08-02T13:48:18.220Z,98533.53
2022-08-02T13:51:05.265Z,98540.59
2022-08-02T13:53:45.574Z,98540.28
2022-08-02T13:56:35.729Z,98537.94
2022-08-02T13:59:21.903Z,98543.22
2022-08-02T14:02:22.231Z,98531.94
2022-08-02T14:05:09.225Z,98530.09
2022-08-02T14:07:49.281Z,98537.19
2022-08-02T14:10:36.238Z,98536.06
2022-08-02T14:13:16.312Z,98536.88
2022-08-02T14:16:03.265Z,98538.78
2022-08-02T14:18:43.332Z,98527.56
2022-08-02T14:21:30.240Z,98536.06
2022-08-02T14:24:35.249Z,98530.03
2022-08-02T14:27:22.237Z,98534.47
2022-08-02T14:30:09.247Z,98525.53
2022-08-02T14:32:57.238Z,98521.63
2022-08-02T14:35:44.256Z,98527.38
2022-08-02T14:38:40.959Z,98519.91
2022-08-02T14:41:20.569Z,98514.97
2022-08-02T14:44:14.522Z,98508.69
2022-08-02T14:46:55.393Z,98507.50
2022-08-02T14:49:44.973Z,98516.13
2022-08-02T14:52:27.687Z,98510.06
2022-08-02T14:55:17.253Z,98509.69
2022-08-02T14:57:57.589Z,98510.16
2022-08-02T15:00:44.243Z,98502.53
2022-08-02T15:03:24.576Z,98508.16
2022-08-02T15:06:11.249Z,98501.53
2022-08-02T15:08:51.594Z,98496.41
2022-08-02T15:11:48.224Z,98496.72
2022-08-02T15:14:28.630Z,98505.81
2022-08-02T15:17:15.278Z,98499.09
2022-08-02T15:20:10.488Z,98499.19
2022-08-02T15:23:10.278Z,98497.06
2022-08-02T15:25:59.280Z,98499.78
2022-08-02T15:28:46.286Z,98498.69
2022-08-02T15:31:33.383Z,98502.19
2022-08-02T15:34:20.287Z,98494.91
2022-08-02T15:37:07.299Z,98494.22
2022-08-02T15:39:54.282Z,98502.28
2022-08-02T15:42:41.311Z,98497.13
2022-08-02T15:45:28.267Z,98498.56
2022-08-02T15:48:15.306Z,98495.13
2022-08-02T15:50:56.150Z,98496.63
2022-08-02T15:53:43.301Z,98495.69
2022-08-02T15:56:24.133Z,98493.88
2022-08-02T15:59:11.301Z,98493.88
2022-08-02T16:01:58.337Z,98500.50
2022-08-02T16:04:45.285Z,98494.72
2022-08-02T16:07:28.412Z,98498.06
2022-08-02T16:10:15.295Z,98500.66
2022-08-02T16:13:22.313Z,98500.44
2022-08-02T16:16:02.727Z,98498.34
2022-08-02T16:18:49.288Z,98505.06
2022-08-02T16:21:36.314Z,98499.84
2022-08-02T16:24:16.372Z,98502.72
2022-08-02T16:27:03.308Z,98498.41
2022-08-02T16:29:50.325Z,98494.97
2022-08-02T16:32:37.324Z,98504.63
2022-08-02T16:35:24.309Z,98499.13
2022-08-02T16:38:11.305Z,98483.56
2022-08-02T16:40:51.467Z,98487.81
2022-08-02T16:43:38.312Z,98482.25
2022-08-02T16:46:18.407Z,98484.75
2022-08-02T16:49:05.378Z,98481.56
2022-08-02T16:52:12.332Z,98488.41
2022-08-02T16:54:59.329Z,98486.13
2022-08-02T16:57:45.201Z,98478.59
2022-08-02T17:00:37.328Z,98481.72
2022-08-02T17:03:24.325Z,98482.25
2022-08-02T17:06:26.264Z,98480.94
2022-08-02T17:09:13.323Z,98481.03
2022-08-02T17:12:16.166Z,98488.66
2022-08-02T17:16:01.122Z,98489.81
2022-08-02T17:18:04.872Z,98497.16
2022-08-02T17:20:55.337Z,98496.38
2022-08-02T17:24:05.659Z,98487.09
2022-08-02T17:26:35.356Z,98494.72
2022-08-02T17:29:22.336Z,98497.19
2022-08-02T17:32:11.760Z,98495.19
2022-08-02T17:35:00.007Z,98491.84
2022-08-02T17:37:54.608Z,98497.91
2022-08-02T17:40:39.403Z,98487.28
2022-08-02T17:46:26.427Z,98500.31
2022-08-02T17:49:29.398Z,98498.75
2022-08-02T17:52:49.219Z,98504.19
2022-08-02T17:55:17.354Z,98505.78
2022-08-02T17:58:04.380Z,98503.69
2022-08-02T18:00:45.012Z,98505.28
2022-08-02T18:03:32.375Z,98502.25
2022-08-02T18:06:20.377Z,98511.66
2022-08-02T18:09:05.482Z,98509.41
2022-08-02T18:11:54.379Z,98512.91
2022-08-02T18:14:34.479Z,98509.81
2022-08-02T18:17:21.395Z,98510.13
2022-08-02T18:20:10.892Z,98512.31
2022-08-02T18:22:55.632Z,98513.50
2022-08-02T18:25:46.957Z,98518.06
2022-08-02T18:28:34.390Z,98511.94
2022-08-02T18:31:23.394Z,98522.03
2022-08-02T18:34:13.373Z,98515.59
2022-08-02T18:36:53.495Z,98512.03
2022-08-02T18:39:40.395Z,98521.19
2022-08-02T18:42:38.414Z,98515.97
2022-08-02T18:45:25.389Z,98506.38
2022-08-02T18:48:32.388Z,98515.78
2022-08-02T18:51:19.506Z,98524.00
2022-08-02T18:54:06.390Z,98526.91
2022-08-02T18:56:50.148Z,98536.84
2022-08-02T18:59:37.653Z,98527.75
2022-08-02T19:02:24.948Z,98524.53
2022-08-02T19:05:07.555Z,98531.56
2022-08-02T19:07:54.403Z,98547.69
2022-08-02T19:10:49.018Z,98540.88
2022-08-02T19:13:29.819Z,98549.06
2022-08-02T19:16:16.421Z,98543.88
2022-08-02T19:18:56.772Z,98541.88
2022-08-02T19:22:26.419Z,98538.78
2022-08-02T19:24:44.441Z,98543.81
2022-08-02T19:27:33.297Z,98541.31
2022-08-02T19:30:14.329Z,98540.91
2022-08-02T19:33:09.042Z,98540.97
2022-08-02T19:36:01.514Z,98543.50
2022-08-02T19:38:51.421Z,98553.06
2022-08-02T19:41:32.703Z,98547.44
2022-08-02T19:44:30.418Z,98548.63
2022-08-02T19:47:12.147Z,98554.13
2022-08-02T19:49:59.494Z,98556.59
2022-08-02T19:52:40.508Z,98556.44
2022-08-02T19:55:59.406Z,98567.31
2022-08-02T19:58:28.574Z,98570.28
2022-08-02T20:01:16.768Z,98578.16
2022-08-02T20:03:57.946Z,98568.84
2022-08-02T20:06:46.178Z,98568.91
2022-08-02T20:09:33.505Z,98560.88
2022-08-02T20:12:37.212Z,98557.97
2022-08-02T20:15:51.819Z,98552.88
2022-08-02T20:18:33.443Z,98559.88
2022-08-02T20:21:36.041Z,98556.44
2022-08-02T20:24:26.570Z,98553.31
2022-08-02T20:27:07.546Z,98550.09
2022-08-02T20:29:54.459Z,98548.56
2022-08-02T20:32:35.566Z,98553.66
2022-08-02T20:35:24.486Z,98552.06
2022-08-02T20:38:13.454Z,98554.25
2022-08-02T20:41:00.463Z,98553.72
2022-08-02T20:43:47.485Z,98549.22
2022-08-02T20:46:28.785Z,98549.56
2022-08-02T20:49:25.065Z,98543.22
2022-08-02T20:52:23.811Z,98540.53
2022-08-02T20:55:17.293Z,98538.94
2022-08-02T20:58:00.898Z,98541.47
2022-08-02T21:00:48.465Z,98547.25
2022-08-02T21:03:32.238Z,98545.59
2022-08-02T21:06:25.642Z,98543.47
2022-08-02T21:09:15.478Z,98553.69
2022-08-02T21:11:56.088Z,98551.69
2022-08-02T21:14:42.512Z,98551.56
2022-08-02T21:17:43.200Z,98549.13
2022-08-02T21:20:29.307Z,98548.31
2022-08-02T21:26:28.041Z,98541.88
2022-08-02T21:29:09.577Z,98545.75
2022-08-02T21:31:56.489Z,98547.16
2022-08-02T21:34:36.616Z,98551.09
2022-08-02T21:37:23.480Z,98547.94
2022-08-02T21:40:24.553Z,98551.75
2022-08-02T21:43:11.470Z,98553.56
2022-08-02T21:45:53.758Z,98552.75
2022-08-02T21:48:42.524Z,98550.63
2022-08-02T21:51:24.583Z,98552.84
2022-08-02T21:54:18.575Z,98555.59
2022-08-02T21:57:06.502Z,98560.78
2022-08-02T21:59:48.645Z,98557.31
2022-08-02T22:02:39.542Z,98557.56
2022-08-02T22:05:26.510Z,98557.06
2022-08-02T22:08:23.564Z,98560.56
2022-08-02T22:11:03.936Z,98565.75
2022-08-02T22:13:50.539Z,98566.88
2022-08-02T22:16:31.791Z,98571.75
2022-08-02T22:19:20.576Z,98568.03
2022-08-02T22:22:07.489Z,98560.53
2022-08-02T22:24:47.609Z,98574.50
2022-08-02T22:28:12.028Z,98571.84
2022-08-02T22:30:34.590Z,98574.56
2022-08-02T22:33:37.587Z,98577.84
2022-08-02T22:36:28.219Z,98578.63
2022-08-02T22:39:25.529Z,98577.03
2022-08-02T22:42:08.830Z,98573.28
2022-08-02T22:44:55.520Z,98575.22
2022-08-02T22:47:51.064Z,98574.16
2022-08-02T22:50:38.532Z,98576.84
2022-08-02T22:53:35.455Z,98572.03
2022-08-02T22:56:22.524Z,98586.28
2022-08-02T22:58:39.901Z,98493.28
2022-08-02T22:59:02.553Z,98546.44
2022-08-02T23:02:05.524Z,98575.25
2022-08-02T23:04:45.836Z,98583.59
2022-08-02T23:07:36.224Z,98575.28
2022-08-02T23:10:18.850Z,98573.19
2022-08-02T23:13:05.643Z,98574.31
2022-08-02T23:16:01.073Z,98564.13
2022-08-02T23:19:02.543Z,98582.13
2022-08-02T23:22:01.142Z,98567.66
2022-08-02T23:24:49.528Z,98573.84
2022-08-02T23:27:31.260Z,98566.06
2022-08-02T23:30:17.573Z,98564.19
2022-08-02T23:33:04.546Z,98565.53
2022-08-02T23:35:44.701Z,98569.03
2022-08-02T23:38:31.564Z,98569.03
2022-08-02T23:41:18.530Z,98570.63
2022-08-02T23:44:14.393Z,98571.44
2022-08-02T23:47:01.543Z,98568.81
2022-08-02T23:49:48.575Z,98567.75
2022-08-02T23:52:35.549Z,98570.13
2022-08-02T23:55:22.558Z,98573.09
2022-08-02T23:58:02.615Z,98567.97
